createdAt,value
2018-09-21T00:00:47.644Z,99.90
2018-09-21T00:03:21.720Z,99.90
2018-09-21T00:05:55.541Z,99.90
2018-09-21T00:08:29.553Z,99.90
2018-09-21T00:11:03.593Z,99.90
2018-09-21T00:13:37.697Z,99.90
2018-09-21T00:16:11.805Z,99.90
2018-09-21T00:18:45.820Z,99.90
2018-09-21T00:21:19.905Z,99.90
2018-09-21T00:23:53.945Z,99.90
2018-09-21T00:26:27.999Z,99.90
2018-09-21T00:29:02.067Z,99.90
2018-09-21T00:31:36.074Z,99.90
2018-09-21T00:34:10.089Z,99.90
2018-09-21T00:36:44.205Z,99.90
2018-09-21T00:39:18.209Z,99.90
2018-09-21T00:41:52.301Z,99.90
2018-09-21T00:44:26.270Z,99.90
2018-09-21T00:47:00.285Z,99.90
2018-09-21T00:49:34.293Z,99.90
2018-09-21T00:52:08.382Z,99.90
2018-09-21T00:54:42.490Z,99.90
2018-09-21T00:57:16.518Z,99.90
2018-09-21T00:59:50.634Z,99.90
2018-09-21T01:02:24.654Z,99.90
2018-09-21T01:04:58.637Z,99.90
2018-09-21T01:07:32.638Z,99.90
2018-09-21T01:10:07.487Z,99.90
2018-09-21T01:12:41.383Z,99.90
2018-09-21T01:15:16.120Z,99.90
2018-09-21T01:17:50.069Z,99.90
2018-09-21T01:20:24.129Z,99.90
2018-09-21T01:22:58.256Z,99.90
2018-09-21T01:25:32.262Z,99.90
2018-09-21T01:28:06.297Z,99.90
2018-09-21T01:30:40.294Z,99.90
2018-09-21T01:33:14.414Z,99.90
2018-09-21T01:35:48.398Z,99.90
2018-09-21T01:38:23.249Z,99.90
2018-09-21T01:40:57.163Z,99.90
2018-09-21T01:43:31.068Z,99.90
2018-09-21T01:46:05.245Z,99.90
2018-09-21T01:48:39.270Z,99.90
2018-09-21T01:51:13.403Z,99.90
2018-09-21T01:53:47.273Z,99.90
2018-09-21T01:56:21.395Z,99.90
2018-09-21T01:58:55.488Z,99.90
2018-09-21T02:01:29.451Z,99.90
2018-09-21T02:04:04.183Z,99.90
2018-09-21T02:06:38.072Z,99.90
2018-09-21T02:09:12.093Z,99.90
2018-09-21T02:11:46.149Z,99.90
2018-09-21T02:14:20.207Z,99.90
2018-09-21T02:16:54.962Z,99.90
2018-09-21T02:19:28.965Z,99.90
2018-09-21T02:22:03.040Z,99.90
2018-09-21T02:24:37.090Z,99.90
2018-09-21T02:27:11.098Z,99.90
2018-09-21T02:29:45.217Z,99.90
2018-09-21T02:32:19.257Z,99.90
2018-09-21T02:34:54.056Z,99.90
2018-09-21T02:37:27.991Z,99.90
2018-09-21T02:40:01.982Z,99.90
2018-09-21T02:42:35.994Z,99.90
2018-09-21T02:45:10.819Z,99.90
2018-09-21T02:47:45.542Z,99.90
2018-09-21T02:50:20.186Z,99.90
2018-09-21T02:52:54.177Z,99.90
2018-09-21T02:55:28.138Z,99.90
2018-09-21T02:58:02.993Z,99.90
2018-09-21T03:00:37.006Z,99.90
2018-09-21T03:03:10.965Z,99.90
2018-09-21T03:05:44.978Z,99.90
2018-09-21T03:08:18.974Z,99.90
2018-09-21T03:10:52.990Z,99.90
2018-09-21T03:13:26.961Z,99.90
2018-09-21T03:16:00.909Z,99.90
2018-09-21T03:18:34.985Z,99.90
2018-09-21T03:21:08.985Z,99.90
2018-09-21T03:23:43.084Z,99.90
2018-09-21T03:26:17.101Z,99.90
2018-09-21T03:28:51.167Z,99.90
2018-09-21T03:31:25.979Z,99.90
2018-09-21T03:33:59.845Z,99.90
2018-09-21T03:36:33.890Z,99.90
2018-09-21T03:39:10.165Z,99.90
2018-09-21T03:41:44.311Z,99.90
2018-09-21T03:44:19.202Z,99.90
2018-09-21T03:46:53.167Z,99.90
2018-09-21T03:49:29.526Z,99.90
2018-09-21T03:52:03.733Z,99.90
2018-09-21T03:54:38.157Z,99.90
2018-09-21T03:57:12.148Z,99.90
2018-09-21T03:59:46.209Z,99.90
2018-09-21T04:02:20.772Z,99.90
2018-09-21T04:04:54.715Z,99.90
2018-09-21T04:07:28.790Z,99.90
2018-09-21T04:10:02.850Z,99.90
2018-09-21T04:12:36.962Z,99.90
2018-09-21T04:15:11.186Z,99.90
2018-09-21T04:17:45.215Z,99.90
2018-09-21T04:20:19.563Z,99.90
2018-09-21T04:22:54.505Z,99.90
2018-09-21T04:25:28.526Z,99.90
2018-09-21T04:28:02.421Z,99.90
2018-09-21T04:30:36.572Z,99.90
2018-09-21T04:33:10.649Z,99.90
2018-09-21T04:35:45.485Z,99.90
2018-09-21T04:38:19.485Z,99.90
2018-09-21T04:40:53.866Z,99.90
2018-09-21T04:43:27.813Z,99.90
2018-09-21T04:46:01.902Z,99.90
2018-09-21T04:48:37.078Z,99.90
2018-09-21T04:51:12.966Z,99.90
2018-09-21T04:53:49.804Z,99.90
2018-09-21T04:56:27.101Z,99.90
2018-09-21T04:59:01.833Z,99.90
2018-09-21T05:01:35.875Z,99.90
2018-09-21T05:04:10.008Z,99.90
2018-09-21T05:06:47.653Z,99.90
2018-09-21T05:09:22.178Z,99.90
2018-09-21T05:11:56.275Z,99.90
2018-09-21T05:14:30.312Z,99.90
2018-09-21T05:17:05.035Z,99.90
2018-09-21T05:19:39.916Z,99.90
2018-09-21T05:22:13.983Z,99.90
2018-09-21T05:24:48.006Z,99.90
2018-09-21T05:27:22.106Z,99.90
2018-09-21T05:29:56.144Z,99.90
2018-09-21T05:32:30.111Z,99.90
2018-09-21T05:35:04.293Z,99.90
2018-09-21T05:37:38.334Z,99.90
2018-09-21T05:40:12.390Z,99.90
2018-09-21T05:42:47.220Z,99.90
2018-09-21T05:45:21.293Z,99.90
2018-09-21T05:47:55.339Z,99.90
2018-09-21T05:50:29.417Z,99.90
2018-09-21T05:53:03.550Z,99.90
2018-09-21T05:55:37.635Z,99.90
2018-09-21T05:58:11.651Z,99.90
2018-09-21T06:00:45.770Z,99.90
2018-09-21T06:03:20.597Z,99.90
2018-09-21T06:05:55.345Z,99.90
2018-09-21T06:08:29.470Z,99.90
2018-09-21T06:11:03.680Z,99.90
2018-09-21T06:13:37.818Z,99.90
2018-09-21T06:16:11.907Z,99.90
2018-09-21T06:18:45.998Z,99.90
2018-09-21T06:21:19.975Z,99.90
2018-09-21T06:23:54.021Z,98.90
2018-09-21T06:26:28.150Z,98.50
2018-09-21T06:29:02.172Z,97.70
2018-09-21T06:31:36.274Z,96.50
2018-09-21T06:34:10.391Z,96.00
2018-09-21T06:36:44.493Z,95.60
2018-09-21T06:39:18.592Z,95.30
2018-09-21T06:41:52.719Z,94.40
2018-09-21T06:44:26.781Z,94.30
2018-09-21T06:47:01.542Z,94.40
2018-09-21T06:49:35.433Z,94.30
2018-09-21T06:52:09.511Z,94.10
2018-09-21T06:54:43.514Z,94.00
2018-09-21T06:57:18.334Z,94.00
2018-09-21T06:59:52.411Z,94.00
2018-09-21T07:02:26.409Z,93.50
2018-09-21T07:05:00.429Z,93.50
2018-09-21T07:07:34.440Z,93.30
2018-09-21T07:10:08.645Z,92.80
2018-09-21T07:12:42.690Z,92.90
2018-09-21T07:15:16.697Z,92.90
2018-09-21T07:17:51.425Z,92.30
2018-09-21T07:20:25.324Z,92.30
2018-09-21T07:23:00.149Z,92.30
2018-09-21T07:25:34.066Z,92.20
2018-09-21T07:28:08.904Z,93.00
2018-09-21T07:30:42.832Z,93.10
2018-09-21T07:33:16.840Z,94.20
2018-09-21T07:35:51.662Z,95.90
2018-09-21T07:38:26.371Z,96.10
2018-09-21T07:41:00.245Z,96.10
2018-09-21T07:43:34.537Z,96.50
2018-09-21T07:46:08.914Z,96.10
2018-09-21T07:48:43.687Z,95.00
2018-09-21T07:51:17.846Z,95.00
2018-09-21T07:53:52.106Z,95.00
2018-09-21T07:56:27.352Z,93.80
2018-09-21T07:59:01.581Z,93.50
2018-09-21T08:01:35.854Z,93.20
2018-09-21T08:04:09.962Z,92.50
2018-09-21T08:06:44.224Z,91.90
2018-09-21T08:09:19.258Z,91.80
2018-09-21T08:11:53.503Z,91.10
2018-09-21T08:14:27.943Z,90.50
2018-09-21T08:17:03.512Z,90.40
2018-09-21T08:19:37.739Z,90.40
2018-09-21T08:22:11.757Z,90.20
2018-09-21T08:24:45.738Z,90.80
2018-09-21T08:27:19.893Z,90.90
2018-09-21T08:29:53.893Z,90.00
2018-09-21T08:32:27.977Z,89.80
2018-09-21T08:35:02.092Z,89.00
2018-09-21T08:37:36.090Z,88.90
2018-09-21T08:40:10.533Z,88.60
2018-09-21T08:42:44.558Z,88.60
2018-09-21T08:45:18.693Z,87.00
2018-09-21T08:47:52.605Z,86.80
2018-09-21T08:50:27.437Z,88.70
2018-09-21T08:53:01.580Z,88.70
2018-09-21T08:55:36.495Z,88.60
2018-09-21T08:58:11.518Z,88.30
2018-09-21T09:00:45.996Z,87.80
2018-09-21T09:03:20.390Z,88.30
2018-09-21T09:05:54.638Z,87.80
2018-09-21T09:08:28.860Z,88.50
2018-09-21T09:11:02.925Z,85.60
2018-09-21T09:13:37.218Z,84.80
2018-09-21T09:16:12.070Z,82.80
2018-09-21T09:18:46.631Z,82.80
2018-09-21T09:21:20.599Z,83.40
2018-09-21T09:23:54.714Z,83.30
2018-09-21T09:26:28.901Z,84.60
2018-09-21T09:29:02.996Z,84.00
2018-09-21T09:31:37.880Z,84.20
2018-09-21T09:34:12.095Z,84.80
2018-09-21T09:36:46.407Z,85.70
2018-09-21T09:39:20.768Z,86.60
2018-09-21T09:41:54.958Z,87.00
2018-09-21T09:44:29.377Z,88.20
2018-09-21T09:47:03.691Z,87.30
2018-09-21T09:49:37.852Z,87.20
2018-09-21T09:52:11.903Z,87.50
2018-09-21T09:54:45.995Z,87.20
2018-09-21T09:57:20.474Z,85.50
2018-09-21T09:59:54.602Z,85.90
2018-09-21T10:02:28.577Z,84.80
2018-09-21T10:05:02.847Z,85.50
2018-09-21T10:07:37.722Z,83.10
2018-09-21T10:10:11.837Z,83.00
2018-09-21T10:12:46.080Z,83.40
2018-09-21T10:15:21.039Z,80.70
2018-09-21T10:17:56.260Z,79.60
2018-09-21T10:20:30.212Z,79.60
2018-09-21T10:23:04.469Z,77.00
2018-09-21T10:25:38.914Z,76.60
2018-09-21T10:28:13.446Z,73.70
2018-09-21T10:30:47.793Z,72.80
2018-09-21T10:33:22.038Z,71.90
2018-09-21T10:35:56.276Z,70.30
2018-09-21T10:38:30.456Z,71.60
2018-09-21T10:41:05.286Z,71.50
2018-09-21T10:43:39.278Z,71.50
2018-09-21T10:46:14.414Z,69.10
2018-09-21T10:48:49.727Z,68.50
2018-09-21T10:51:23.754Z,68.40
2018-09-21T10:53:58.073Z,68.80
2018-09-21T10:56:31.981Z,68.50
2018-09-21T10:59:07.309Z,67.60
2018-09-21T11:01:41.522Z,67.60
2018-09-21T11:04:15.848Z,65.50
2018-09-21T11:06:50.071Z,65.70
2018-09-21T11:09:24.226Z,66.40
2018-09-21T11:11:58.464Z,66.70
2018-09-21T11:14:33.341Z,67.00
2018-09-21T11:17:07.350Z,67.20
2018-09-21T11:19:42.443Z,66.70
2018-09-21T11:22:16.749Z,66.70
2018-09-21T11:24:50.882Z,66.90
2018-09-21T11:27:25.026Z,65.70
2018-09-21T11:29:59.430Z,65.40
2018-09-21T11:32:34.337Z,65.70
2018-09-21T11:35:08.276Z,65.70
2018-09-21T11:37:42.622Z,65.30
2018-09-21T11:40:16.515Z,64.80
2018-09-21T11:42:50.779Z,64.60
2018-09-21T11:45:28.115Z,64.90
2018-09-21T11:48:02.591Z,63.80
2018-09-21T11:50:36.753Z,64.00
2018-09-21T11:53:10.790Z,64.30
2018-09-21T11:55:44.940Z,64.30
2018-09-21T11:58:19.286Z,64.10
2018-09-21T12:00:53.450Z,64.30
2018-09-21T12:03:28.401Z,64.80
2018-09-21T12:06:02.823Z,64.80
2018-09-21T12:08:36.936Z,64.80
2018-09-21T12:11:11.108Z,64.30
2018-09-21T12:13:45.438Z,64.00
2018-09-21T12:16:19.726Z,64.10
2018-09-21T12:18:53.705Z,64.10
2018-09-21T12:21:28.393Z,64.70
2018-09-21T12:24:03.229Z,65.10
2018-09-21T12:26:37.278Z,65.10
2018-09-21T12:29:12.857Z,65.10
2018-09-21T12:31:48.716Z,66.00
2018-09-21T12:34:22.933Z,66.00
2018-09-21T12:36:57.269Z,69.60
2018-09-21T12:39:31.565Z,76.50
2018-09-21T12:42:06.085Z,80.50
2018-09-21T12:44:40.199Z,81.00
2018-09-21T12:47:14.537Z,82.40
2018-09-21T12:49:48.917Z,80.30
2018-09-21T12:52:22.845Z,78.70
2018-09-21T12:54:57.631Z,82.10
2018-09-21T12:57:31.705Z,82.30
2018-09-21T13:00:06.206Z,75.30
2018-09-21T13:02:40.298Z,76.90
2018-09-21T13:05:14.341Z,77.10
2018-09-21T13:07:48.472Z,77.20
2018-09-21T13:10:22.542Z,75.70
2018-09-21T13:12:57.489Z,75.60
2018-09-21T13:15:31.923Z,75.50
2018-09-21T13:18:06.802Z,77.50
2018-09-21T13:20:41.690Z,78.00
2018-09-21T13:23:15.795Z,78.00
2018-09-21T13:25:49.790Z,78.70
2018-09-21T13:28:24.261Z,80.30
2018-09-21T13:30:58.211Z,91.80
2018-09-21T13:33:32.764Z,99.90
2018-09-21T13:36:07.162Z,99.90
2018-09-21T13:38:41.213Z,99.90
2018-09-21T13:41:16.293Z,99.90
2018-09-21T13:43:50.469Z,99.90
2018-09-21T13:46:24.586Z,99.90
2018-09-21T13:49:00.299Z,99.90
2018-09-21T13:51:34.303Z,99.90
2018-09-21T13:54:08.308Z,99.90
2018-09-21T13:56:42.369Z,99.90
2018-09-21T13:59:16.616Z,99.90
2018-09-21T14:01:51.547Z,99.90
2018-09-21T14:04:25.627Z,99.90
2018-09-21T14:06:59.704Z,99.90
2018-09-21T14:09:33.896Z,99.90
2018-09-21T14:12:07.955Z,99.90
2018-09-21T14:14:42.103Z,99.90
2018-09-21T14:17:16.447Z,99.90
2018-09-21T14:19:50.697Z,99.90
2018-09-21T14:22:25.982Z,99.90
2018-09-21T14:25:00.022Z,99.90
2018-09-21T14:27:34.062Z,99.90
2018-09-21T14:30:08.201Z,99.90
2018-09-21T14:32:42.376Z,99.90
2018-09-21T14:35:16.537Z,99.90
2018-09-21T14:37:50.728Z,99.90
2018-09-21T14:40:25.323Z,99.90
2018-09-21T14:43:00.137Z,99.90
2018-09-21T14:45:34.596Z,99.90
2018-09-21T14:48:08.926Z,99.90
2018-09-21T14:50:43.612Z,99.90
2018-09-21T14:53:17.827Z,99.90
2018-09-21T14:55:51.967Z,99.90
2018-09-21T14:58:25.935Z,99.90
2018-09-21T15:01:00.202Z,99.90
2018-09-21T15:03:35.050Z,99.90
2018-09-21T15:06:09.556Z,99.90
2018-09-21T15:08:44.592Z,99.90
2018-09-21T15:11:18.599Z,99.90
2018-09-21T15:13:52.821Z,99.90
2018-09-21T15:16:26.950Z,99.90
2018-09-21T15:19:01.093Z,99.90
2018-09-21T15:21:36.191Z,99.90
2018-09-21T15:24:10.807Z,99.90
2018-09-21T15:26:45.434Z,99.90
2018-09-21T15:29:19.855Z,99.90
2018-09-21T15:31:54.274Z,99.90
2018-09-21T15:34:28.298Z,99.90
2018-09-21T15:37:02.322Z,99.90
2018-09-21T15:39:37.339Z,99.90
2018-09-21T15:42:11.502Z,99.90
2018-09-21T15:44:45.564Z,99.90
2018-09-21T15:47:19.619Z,99.90
2018-09-21T15:49:53.805Z,99.90
2018-09-21T15:52:29.238Z,99.90
2018-09-21T15:55:03.760Z,99.90
2018-09-21T15:57:38.811Z,99.90
2018-09-21T16:00:12.918Z,99.90
2018-09-21T16:02:47.126Z,99.90
2018-09-21T16:05:21.187Z,99.90
2018-09-21T16:07:56.142Z,99.90
2018-09-21T16:10:30.930Z,99.90
2018-09-21T16:13:04.931Z,99.90
2018-09-21T16:15:38.893Z,99.90
2018-09-21T16:18:13.344Z,99.90
2018-09-21T16:20:49.196Z,97.30
2018-09-21T16:23:23.439Z,99.90
2018-09-21T16:25:59.078Z,99.90
2018-09-21T16:28:34.065Z,99.90
2018-09-21T16:31:08.575Z,99.90
2018-09-21T16:33:42.610Z,99.90
2018-09-21T16:36:17.917Z,99.90
2018-09-21T16:38:52.194Z,99.90
2018-09-21T16:41:26.512Z,99.90
2018-09-21T16:44:01.246Z,99.90
2018-09-21T16:46:35.400Z,99.90
2018-09-21T16:49:10.815Z,99.90
2018-09-21T16:51:44.988Z,99.90
2018-09-21T16:54:19.436Z,99.90
2018-09-21T16:56:53.466Z,99.90
2018-09-21T16:59:28.326Z,99.90
2018-09-21T17:02:02.700Z,99.90
2018-09-21T17:04:37.881Z,99.90
2018-09-21T17:07:12.337Z,99.90
2018-09-21T17:09:46.360Z,99.90
2018-09-21T17:12:20.450Z,99.90
2018-09-21T17:14:55.006Z,99.90
2018-09-21T17:17:29.126Z,99.90
2018-09-21T17:20:04.199Z,99.90
2018-09-21T17:22:39.097Z,99.90
2018-09-21T17:25:13.254Z,99.90
2018-09-21T17:27:47.374Z,99.90
2018-09-21T17:30:21.534Z,99.90
2018-09-21T17:32:55.856Z,99.90
2018-09-21T17:35:30.057Z,99.90
2018-09-21T17:38:04.579Z,99.90
2018-09-21T17:40:38.519Z,99.90
2018-09-21T17:43:12.521Z,99.90
2018-09-21T17:45:46.541Z,99.90
2018-09-21T17:48:20.594Z,99.90
2018-09-21T17:50:55.047Z,99.90
2018-09-21T17:53:29.186Z,99.90
2018-09-21T17:56:03.176Z,99.90
2018-09-21T17:58:37.304Z,99.90
2018-09-21T18:01:11.342Z,99.90
2018-09-21T18:03:46.274Z,99.90
2018-09-21T18:06:20.567Z,99.90
2018-09-21T18:08:54.879Z,99.90
2018-09-21T18:11:28.879Z,99.90
2018-09-21T18:14:02.825Z,99.90
2018-09-21T18:16:36.899Z,99.90
2018-09-21T18:21:50.781Z,99.90
2018-09-21T18:24:25.718Z,99.90
2018-09-21T18:27:00.004Z,99.90
2018-09-21T18:29:34.907Z,99.00
2018-09-21T18:32:09.321Z,98.90
2018-09-21T18:34:43.521Z,95.40
2018-09-21T18:37:17.568Z,91.10
2018-09-21T18:39:51.838Z,84.60
2018-09-21T18:42:26.177Z,83.40
2018-09-21T18:45:00.365Z,77.20
2018-09-21T18:47:34.627Z,79.30
2018-09-21T18:50:09.496Z,78.40
2018-09-21T18:52:43.663Z,77.80
2018-09-21T18:55:17.972Z,79.70
2018-09-21T18:57:52.005Z,79.70
2018-09-21T19:00:26.235Z,81.00
2018-09-21T19:03:00.522Z,85.40
2018-09-21T19:05:34.714Z,83.70
2018-09-21T19:08:09.674Z,87.80
2018-09-21T19:10:44.030Z,87.70
2018-09-21T19:13:18.242Z,90.40
2018-09-21T19:15:52.774Z,91.10
2018-09-21T19:18:26.941Z,92.70
2018-09-21T19:21:01.093Z,91.50
2018-09-21T19:23:35.487Z,91.50
2018-09-21T19:26:09.600Z,93.00
2018-09-21T19:28:44.070Z,94.20
2018-09-21T19:31:18.168Z,97.00
2018-09-21T19:33:52.242Z,99.90
2018-09-21T19:36:26.357Z,99.90
2018-09-21T19:39:00.516Z,99.90
2018-09-21T19:41:35.291Z,99.90
2018-09-21T19:44:09.592Z,99.90
2018-09-21T19:46:45.166Z,99.90
2018-09-21T19:49:20.334Z,99.90
2018-09-21T19:51:54.704Z,99.90
2018-09-21T19:54:29.669Z,99.90
2018-09-21T19:57:04.128Z,99.90
2018-09-21T19:59:39.247Z,99.90
2018-09-21T20:02:13.656Z,99.90
2018-09-21T20:04:49.575Z,99.90
2018-09-21T20:07:24.651Z,99.90
2018-09-21T20:09:58.813Z,99.90
2018-09-21T20:12:33.525Z,99.90
2018-09-21T20:15:08.038Z,99.90
2018-09-21T20:17:42.793Z,99.90
2018-09-21T20:20:16.889Z,99.90
2018-09-21T20:22:51.161Z,99.90
2018-09-21T20:25:25.470Z,99.90
2018-09-21T20:27:59.609Z,99.90
2018-09-21T20:30:33.618Z,99.90
2018-09-21T20:33:07.731Z,99.90
2018-09-21T20:35:41.693Z,99.90
2018-09-21T20:38:15.868Z,99.90
2018-09-21T20:40:50.108Z,99.90
2018-09-21T20:43:24.126Z,99.90
2018-09-21T20:45:58.374Z,99.90
2018-09-21T20:48:32.503Z,99.90
2018-09-21T20:51:06.556Z,99.90
2018-09-21T20:53:41.082Z,99.90
2018-09-21T20:56:15.068Z,99.90
2018-09-21T20:58:49.168Z,99.90
2018-09-21T21:01:23.189Z,99.90
2018-09-21T21:03:57.420Z,99.90
2018-09-21T21:06:31.762Z,99.90
2018-09-21T21:09:06.015Z,99.90
2018-09-21T21:11:40.050Z,99.60
2018-09-21T21:14:14.080Z,98.70
2018-09-21T21:16:49.089Z,94.80
2018-09-21T21:19:22.958Z,93.50
2018-09-21T21:21:57.177Z,92.30
2018-09-21T21:24:31.189Z,92.10
2018-09-21T21:27:05.331Z,92.20
2018-09-21T21:29:42.643Z,90.90
2018-09-21T21:32:17.394Z,89.60
2018-09-21T21:34:51.370Z,89.70
2018-09-21T21:37:26.198Z,86.80
2018-09-21T21:40:00.324Z,86.70
2018-09-21T21:42:34.342Z,85.10
2018-09-21T21:45:08.386Z,84.30
2018-09-21T21:47:42.558Z,80.50
2018-09-21T21:50:16.666Z,80.30
2018-09-21T21:52:50.963Z,79.80
2018-09-21T21:55:26.962Z,79.90
2018-09-21T21:58:03.934Z,78.40
2018-09-21T22:00:38.168Z,78.40
2018-09-21T22:03:12.512Z,78.10
2018-09-21T22:05:46.557Z,78.40
2018-09-21T22:08:20.585Z,78.20
2018-09-21T22:10:55.029Z,78.60
2018-09-21T22:13:29.437Z,76.70
2018-09-21T22:16:03.562Z,77.30
2018-09-21T22:18:38.210Z,77.00
2018-09-21T22:21:15.320Z,77.40
2018-09-21T22:23:49.398Z,77.40
2018-09-21T22:26:23.518Z,77.40
2018-09-21T22:28:57.620Z,78.80
2018-09-21T22:31:31.765Z,80.40
2018-09-21T22:34:06.074Z,79.10
2018-09-21T22:36:40.681Z,76.50
2018-09-21T22:39:15.153Z,76.70
2018-09-21T22:41:49.431Z,76.90
2018-09-21T22:44:23.661Z,78.40
2018-09-21T22:46:58.713Z,77.70
2018-09-21T22:49:32.816Z,77.60
2018-09-21T22:52:07.051Z,78.10
2018-09-21T22:54:40.918Z,78.80
2018-09-21T22:57:14.986Z,77.90
2018-09-21T22:59:49.150Z,78.20
2018-09-21T23:02:23.194Z,77.90
2018-09-21T23:04:57.103Z,76.20
2018-09-21T23:07:31.188Z,77.70
2018-09-21T23:10:05.534Z,77.50
2018-09-21T23:12:39.799Z,76.60
2018-09-21T23:15:13.972Z,78.10
2018-09-21T23:17:48.268Z,77.60
2018-09-21T23:20:22.537Z,78.90
2018-09-21T23:22:56.567Z,78.30
2018-09-21T23:25:30.502Z,79.60
2018-09-21T23:28:04.863Z,79.80
2018-09-21T23:30:39.374Z,80.30
2018-09-21T23:33:13.488Z,80.10
2018-09-21T23:35:48.443Z,79.60
2018-09-21T23:38:22.778Z,79.50
2018-09-21T23:40:56.953Z,80.60
2018-09-21T23:43:31.105Z,83.50
2018-09-21T23:46:05.236Z,82.20
2018-09-21T23:48:39.570Z,84.00
2018-09-21T23:51:13.865Z,84.20
2018-09-21T23:53:48.001Z,84.30
2018-09-21T23:56:22.102Z,85.00
2018-09-21T23:58:57.066Z,87.40
